createdAt,value
2023-01-29T00:02:17.075Z,20.45
2023-01-29T00:04:44.868Z,17.70
2023-01-29T00:07:12.642Z,19.90
2023-01-29T00:09:40.394Z,20.00
2023-01-29T00:12:10.609Z,22.33
2023-01-29T00:14:38.169Z,17.90
2023-01-29T00:17:05.682Z,18.88
2023-01-29T00:19:33.213Z,18.05
2023-01-29T00:22:00.733Z,19.77
2023-01-29T00:24:28.324Z,18.15
2023-01-29T00:26:55.853Z,18.90
2023-01-29T00:29:23.376Z,24.42
2023-01-29T00:31:50.898Z,15.65
2023-01-29T00:34:19.204Z,20.08
2023-01-29T00:36:46.758Z,21.52
2023-01-29T00:39:14.283Z,19.85
2023-01-29T00:42:00.671Z,18.58
2023-01-29T00:44:46.739Z,20.55
2023-01-29T00:47:32.803Z,18.90
2023-01-29T00:50:04.990Z,17.50
2023-01-29T00:52:32.633Z,17.42
2023-01-29T00:55:00.964Z,18.77
2023-01-29T00:57:30.685Z,18.50
2023-01-29T00:59:58.311Z,20.77
2023-01-29T01:02:46.989Z,19.77
2023-01-29T01:05:20.448Z,20.40
2023-01-29T01:07:50.804Z,19.30
2023-01-29T01:10:22.097Z,18.30
2023-01-29T01:13:01.464Z,19.33
2023-01-29T01:15:31.719Z,20.42
2023-01-29T01:18:00.982Z,20.80
2023-01-29T01:20:30.996Z,20.95
2023-01-29T01:22:58.590Z,19.35
2023-01-29T01:25:27.090Z,24.48
2023-01-29T01:27:57.565Z,19.33
2023-01-29T01:30:26.223Z,19.05
2023-01-29T01:32:53.752Z,17.83
2023-01-29T01:35:21.462Z,18.95
2023-01-29T01:37:49.743Z,20.15
2023-01-29T01:40:23.112Z,19.65
2023-01-29T01:43:01.376Z,17.25
2023-01-29T01:45:35.700Z,18.52
2023-01-29T01:48:21.857Z,16.85
2023-01-29T01:50:53.844Z,19.67
2023-01-29T01:53:30.874Z,20.60
2023-01-29T01:56:05.006Z,22.52
2023-01-29T02:01:07.346Z,18.33
2023-01-29T02:04:23.634Z,21.10
2023-01-29T02:07:12.218Z,18.58
2023-01-29T02:09:46.537Z,20.58
2023-01-29T02:12:16.837Z,21.23
2023-01-29T02:14:45.195Z,25.80
2023-01-29T02:17:15.723Z,18.42
2023-01-29T02:20:08.607Z,19.00
2023-01-29T02:22:56.178Z,19.77
2023-01-29T02:26:02.914Z,23.42
2023-01-29T02:28:38.420Z,21.38
2023-01-29T02:31:09.590Z,22.92
2023-01-29T02:33:59.520Z,20.15
2023-01-29T02:37:05.034Z,19.77
2023-01-29T02:39:45.612Z,21.55
2023-01-29T02:42:27.438Z,23.02
2023-01-29T02:45:11.631Z,22.45
2023-01-29T02:47:50.182Z,20.10
2023-01-29T02:50:34.936Z,19.40
2023-01-29T02:53:09.460Z,20.55
2023-01-29T02:55:49.013Z,19.25
2023-01-29T02:58:42.375Z,19.77
2023-01-29T03:01:19.053Z,18.50
2023-01-29T03:03:56.120Z,19.20
2023-01-29T03:06:29.772Z,22.63
2023-01-29T03:09:10.303Z,22.60
2023-01-29T03:11:43.094Z,19.58
2023-01-29T03:14:14.933Z,22.00
2023-01-29T03:16:53.851Z,19.80
2023-01-29T03:19:43.031Z,20.45
2023-01-29T03:22:23.358Z,23.77
2023-01-29T03:25:14.216Z,20.58
2023-01-29T03:28:03.777Z,24.27
2023-01-29T03:31:05.905Z,23.27
2023-01-29T03:33:50.925Z,25.02
2023-01-29T03:36:45.434Z,20.67
2023-01-29T03:39:15.733Z,21.50
2023-01-29T03:41:56.255Z,23.15
2023-01-29T03:44:37.263Z,28.00
2023-01-29T03:47:08.883Z,26.48
2023-01-29T03:50:12.595Z,26.30
2023-01-29T03:55:29.304Z,24.25
2023-01-29T03:58:16.464Z,25.90
2023-01-29T04:00:58.789Z,30.20
2023-01-29T04:03:26.429Z,28.00
2023-01-29T04:06:10.063Z,27.27
2023-01-29T04:09:22.434Z,27.45
2023-01-29T04:12:06.147Z,28.05
2023-01-29T04:14:34.678Z,28.42
2023-01-29T04:17:12.544Z,25.95
2023-01-29T04:19:48.069Z,25.70
2023-01-29T04:22:36.683Z,31.27
2023-01-29T04:25:16.180Z,30.00
2023-01-29T04:28:01.893Z,23.48
2023-01-29T04:30:36.236Z,25.08
2023-01-29T04:33:19.682Z,29.17
2023-01-29T04:36:00.312Z,25.33
2023-01-29T04:39:11.052Z,27.75
2023-01-29T04:41:47.600Z,27.85
2023-01-29T04:44:50.773Z,29.25
2023-01-29T04:47:36.799Z,33.17
2023-01-29T04:50:38.974Z,32.90
2023-01-29T04:53:29.812Z,35.83
2023-01-29T04:56:21.155Z,34.60
2023-01-29T04:58:54.789Z,37.33
2023-01-29T05:01:29.952Z,33.25
2023-01-29T05:03:59.473Z,33.33
2023-01-29T05:06:27.672Z,35.33
2023-01-29T05:08:56.937Z,38.92
2023-01-29T05:11:25.884Z,37.42
2023-01-29T05:13:53.998Z,38.88
2023-01-29T05:16:27.019Z,36.80
2023-01-29T05:18:55.473Z,36.75
2023-01-29T05:21:24.028Z,37.00
2023-01-29T05:24:12.980Z,37.83
2023-01-29T05:27:00.960Z,36.90
2023-01-29T05:29:28.555Z,38.53
2023-01-29T05:31:56.269Z,38.10
2023-01-29T05:34:24.081Z,35.08
2023-01-29T05:36:51.703Z,36.33
2023-01-29T05:39:19.542Z,34.40
2023-01-29T05:41:47.072Z,36.03
2023-01-29T05:44:14.634Z,32.13
2023-01-29T05:46:42.204Z,31.20
2023-01-29T05:49:09.852Z,30.73
2023-01-29T05:51:37.470Z,32.28
2023-01-29T05:54:05.365Z,31.55
2023-01-29T05:56:32.781Z,29.08
2023-01-29T05:59:00.332Z,33.58
2023-01-29T06:01:27.770Z,31.38
2023-01-29T06:03:55.284Z,38.30
2023-01-29T06:06:22.830Z,29.80
2023-01-29T06:08:50.360Z,36.63
2023-01-29T06:11:18.473Z,27.60
2023-01-29T06:13:46.389Z,27.58
2023-01-29T06:16:14.972Z,28.33
2023-01-29T06:18:42.855Z,30.00
2023-01-29T06:21:13.561Z,29.75
2023-01-29T06:23:41.211Z,28.63
2023-01-29T06:26:13.961Z,30.48
2023-01-29T06:28:42.276Z,29.90
2023-01-29T06:31:27.410Z,27.38
2023-01-29T06:33:58.978Z,32.53
2023-01-29T06:36:26.481Z,26.77
2023-01-29T06:38:53.994Z,27.52
2023-01-29T06:41:25.581Z,27.17
2023-01-29T06:43:54.478Z,30.38
2023-01-29T06:46:22.021Z,27.23
2023-01-29T06:48:49.583Z,30.20
2023-01-29T06:51:17.390Z,27.00
2023-01-29T06:53:46.428Z,26.10
2023-01-29T06:56:14.450Z,25.15
2023-01-29T06:58:43.680Z,24.60
2023-01-29T07:01:17.448Z,24.50
2023-01-29T07:03:53.073Z,25.70
2023-01-29T07:06:20.725Z,24.48
2023-01-29T07:08:48.243Z,25.40
2023-01-29T07:11:15.713Z,24.48
2023-01-29T07:13:43.206Z,23.38
2023-01-29T07:16:10.745Z,21.83
2023-01-29T07:18:38.403Z,21.67
2023-01-29T07:21:07.435Z,23.27
2023-01-29T07:23:35.768Z,23.65
2023-01-29T07:26:05.284Z,23.67
2023-01-29T07:28:36.992Z,22.90
2023-01-29T07:31:06.002Z,25.17
2023-01-29T07:33:34.284Z,25.88
2023-01-29T07:36:01.965Z,26.08
2023-01-29T07:38:32.493Z,26.27
2023-01-29T07:41:01.310Z,23.35
2023-01-29T07:43:30.423Z,23.20
2023-01-29T07:46:03.148Z,24.25
2023-01-29T07:48:30.845Z,23.65
2023-01-29T07:50:59.119Z,23.17
2023-01-29T07:53:28.424Z,24.33
2023-01-29T07:55:56.153Z,21.83
2023-01-29T07:58:24.021Z,20.33
2023-01-29T08:00:51.644Z,23.55
2023-01-29T08:03:20.362Z,23.17
2023-01-29T08:05:48.465Z,20.73
2023-01-29T08:08:16.382Z,20.15
2023-01-29T08:10:43.818Z,18.13
2023-01-29T08:13:11.395Z,19.05
2023-01-29T08:15:39.386Z,20.15
2023-01-29T08:18:07.247Z,25.15
2023-01-29T08:20:34.744Z,20.70
2023-01-29T08:23:04.811Z,22.77
2023-01-29T08:25:33.294Z,19.88
2023-01-29T08:28:01.291Z,20.27
2023-01-29T08:30:31.667Z,23.35
2023-01-29T08:32:59.234Z,19.70
2023-01-29T08:35:27.515Z,19.75
2023-01-29T08:38:00.589Z,19.38
2023-01-29T08:40:31.932Z,17.42
2023-01-29T08:43:02.499Z,16.77
2023-01-29T08:45:33.493Z,19.00
2023-01-29T08:48:01.239Z,17.92
2023-01-29T08:50:30.832Z,13.65
2023-01-29T08:53:00.579Z,16.40
2023-01-29T08:55:28.291Z,17.98
2023-01-29T08:57:57.488Z,15.07
2023-01-29T09:00:25.187Z,18.85
2023-01-29T09:02:52.772Z,12.90
2023-01-29T09:05:20.635Z,15.63
2023-01-29T09:07:48.204Z,14.50
2023-01-29T09:10:16.181Z,15.70
2023-01-29T09:12:43.621Z,17.92
2023-01-29T09:15:11.710Z,14.90
2023-01-29T09:17:39.171Z,17.65
2023-01-29T09:20:07.872Z,15.85
2023-01-29T09:22:35.760Z,14.80
2023-01-29T09:25:03.612Z,13.70
2023-01-29T09:27:31.081Z,12.88
2023-01-29T09:29:58.954Z,16.23
2023-01-29T09:32:51.971Z,14.82
2023-01-29T09:35:14.273Z,13.00
2023-01-29T09:37:41.822Z,14.50
2023-01-29T09:40:28.460Z,17.50
2023-01-29T09:43:07.550Z,13.68
2023-01-29T09:45:37.082Z,13.80
2023-01-29T09:48:05.968Z,12.13
2023-01-29T09:50:41.582Z,13.48
2023-01-29T09:53:12.039Z,13.32
2023-01-29T09:55:45.654Z,16.35
2023-01-29T09:58:25.217Z,14.15
2023-01-29T10:01:08.040Z,13.65
2023-01-29T10:03:48.502Z,15.43
2023-01-29T10:06:33.234Z,13.85
2023-01-29T10:09:38.962Z,13.10
2023-01-29T10:12:18.353Z,11.90
2023-01-29T10:15:04.033Z,12.05
2023-01-29T10:17:56.812Z,11.18
2023-01-29T10:20:42.833Z,10.57
2023-01-29T10:23:31.143Z,11.57
2023-01-29T10:25:59.670Z,11.38
2023-01-29T10:28:47.720Z,13.10
2023-01-29T10:31:27.916Z,12.60
2023-01-29T10:34:07.901Z,14.52
2023-01-29T10:36:48.861Z,14.00
2023-01-29T10:39:25.601Z,13.45
2023-01-29T10:42:08.468Z,11.85
2023-01-29T10:44:45.173Z,13.65
2023-01-29T10:47:29.964Z,11.63
2023-01-29T10:50:09.730Z,9.45
2023-01-29T10:53:15.198Z,11.05
2023-01-29T10:59:47.981Z,16.00
2023-01-29T11:02:18.686Z,13.43
2023-01-29T11:04:46.435Z,14.82
2023-01-29T11:07:17.576Z,12.38
2023-01-29T11:10:01.346Z,12.63
2023-01-29T11:12:33.763Z,12.82
2023-01-29T11:15:18.526Z,21.77
2023-01-29T11:18:14.220Z,15.93
2023-01-29T11:20:44.563Z,15.07
2023-01-29T11:23:31.016Z,12.52
2023-01-29T11:26:00.257Z,12.88
2023-01-29T11:28:42.138Z,16.23
2023-01-29T11:31:27.645Z,19.15
2023-01-29T11:34:22.606Z,19.45
2023-01-29T11:37:03.259Z,22.40
2023-01-29T11:39:32.512Z,17.80
2023-01-29T11:42:05.247Z,19.00
2023-01-29T11:44:40.401Z,17.73
2023-01-29T11:47:18.216Z,20.27
2023-01-29T11:49:55.418Z,17.25
2023-01-29T11:52:36.628Z,21.08
2023-01-29T11:55:13.763Z,18.63
2023-01-29T11:57:54.316Z,19.20
2023-01-29T12:00:25.087Z,19.50
2023-01-29T12:03:03.374Z,21.40
2023-01-29T12:05:30.976Z,18.33
2023-01-29T12:08:00.754Z,18.73
2023-01-29T12:10:41.621Z,17.33
2023-01-29T12:13:20.163Z,18.42
2023-01-29T12:15:49.022Z,21.27
2023-01-29T12:18:41.404Z,20.23
2023-01-29T12:21:23.052Z,22.60
2023-01-29T12:23:57.692Z,19.98
2023-01-29T12:26:34.254Z,24.15
2023-01-29T12:29:27.989Z,23.13
2023-01-29T12:32:27.685Z,21.70
2023-01-29T12:35:23.829Z,23.23
2023-01-29T12:38:03.700Z,19.75
2023-01-29T12:40:46.357Z,19.55
2023-01-29T12:43:18.042Z,21.10
2023-01-29T12:45:52.261Z,21.77
2023-01-29T12:48:26.769Z,21.02
2023-01-29T12:51:08.495Z,17.75
2023-01-29T12:53:43.902Z,19.30
2023-01-29T12:56:41.306Z,21.77
2023-01-29T12:59:29.397Z,16.27
2023-01-29T13:02:24.530Z,21.20
2023-01-29T13:04:59.391Z,22.05
2023-01-29T13:07:33.289Z,21.60
2023-01-29T13:10:21.153Z,21.80
2023-01-29T13:12:56.135Z,20.63
2023-01-29T13:15:28.588Z,24.02
2023-01-29T13:18:29.561Z,19.63
2023-01-29T13:20:57.361Z,21.77
2023-01-29T13:23:38.250Z,20.27
2023-01-29T13:26:06.559Z,21.52
2023-01-29T13:28:34.145Z,21.50
2023-01-29T13:31:32.085Z,21.17
2023-01-29T13:34:04.489Z,22.70
2023-01-29T13:36:32.682Z,19.98
2023-01-29T13:39:07.436Z,21.30
2023-01-29T13:41:38.945Z,20.55
2023-01-29T13:44:18.325Z,20.30
2023-01-29T13:47:09.701Z,24.17
2023-01-29T13:49:45.765Z,21.55
2023-01-29T13:52:40.997Z,19.42
2023-01-29T13:55:21.482Z,21.13
2023-01-29T13:57:55.642Z,23.88
2023-01-29T14:00:31.010Z,21.38
2023-01-29T14:03:01.262Z,21.77
2023-01-29T14:05:31.996Z,20.83
2023-01-29T14:08:03.806Z,19.58
2023-01-29T14:10:33.646Z,21.20
2023-01-29T14:13:04.280Z,17.08
2023-01-29T14:15:36.901Z,13.63
2023-01-29T14:18:13.741Z,13.50
2023-01-29T14:20:47.369Z,13.25
2023-01-29T14:25:51.597Z,13.45
2023-01-29T14:28:27.087Z,11.15
2023-01-29T14:30:56.167Z,13.40
2023-01-29T14:33:43.381Z,15.63
2023-01-29T14:36:13.822Z,15.65
2023-01-29T14:38:52.530Z,18.33
2023-01-29T14:41:31.118Z,19.08
2023-01-29T14:44:40.472Z,19.20
2023-01-29T14:47:19.326Z,13.82
2023-01-29T14:49:55.843Z,12.35
2023-01-29T14:52:44.073Z,10.23
2023-01-29T14:55:27.120Z,12.23
2023-01-29T14:57:58.360Z,10.27
2023-01-29T15:00:33.532Z,11.20
2023-01-29T15:03:04.383Z,11.68
2023-01-29T15:05:37.418Z,8.77
2023-01-29T15:08:16.823Z,9.48
2023-01-29T15:11:09.377Z,12.57
2023-01-29T15:13:50.946Z,11.90
2023-01-29T15:16:24.777Z,12.50
2023-01-29T15:19:04.405Z,14.77
2023-01-29T15:21:32.233Z,12.18
2023-01-29T15:24:07.187Z,10.90
2023-01-29T15:26:36.159Z,12.13
2023-01-29T15:29:05.983Z,11.95
2023-01-29T15:31:35.694Z,10.75
2023-01-29T15:34:07.739Z,12.82
2023-01-29T15:36:37.336Z,11.77
2023-01-29T15:39:10.629Z,12.38
2023-01-29T15:41:38.819Z,10.27
2023-01-29T15:44:18.856Z,10.95
2023-01-29T15:46:54.644Z,13.13
2023-01-29T15:49:34.114Z,10.07
2023-01-29T15:52:07.605Z,13.20
2023-01-29T15:54:36.184Z,10.10
2023-01-29T15:57:04.054Z,11.35
2023-01-29T15:59:36.773Z,11.73
2023-01-29T16:02:26.144Z,11.18
2023-01-29T16:04:54.173Z,10.73
2023-01-29T16:07:22.637Z,13.27
2023-01-29T16:09:51.628Z,11.77
2023-01-29T16:12:19.631Z,11.32
2023-01-29T16:14:49.848Z,11.40
2023-01-29T16:17:26.290Z,27.10
2023-01-29T16:20:01.638Z,13.18
2023-01-29T16:22:35.843Z,12.35
2023-01-29T16:25:12.440Z,13.30
2023-01-29T16:27:43.439Z,11.65
2023-01-29T16:30:16.524Z,10.52
2023-01-29T16:32:44.129Z,10.23
2023-01-29T16:35:17.393Z,12.38
2023-01-29T16:40:27.165Z,12.13
2023-01-29T16:43:17.196Z,11.10
2023-01-29T16:46:06.222Z,11.38
2023-01-29T16:48:35.332Z,10.02
2023-01-29T16:51:14.028Z,12.90
2023-01-29T16:53:53.716Z,9.55
2023-01-29T16:56:23.881Z,10.73
2023-01-29T16:58:53.515Z,10.23
2023-01-29T17:01:24.376Z,12.32
2023-01-29T17:04:14.972Z,9.82
2023-01-29T17:06:47.696Z,9.07
2023-01-29T17:09:23.214Z,7.73
2023-01-29T17:11:56.540Z,8.40
2023-01-29T17:14:26.255Z,10.13
2023-01-29T17:17:03.995Z,10.20
2023-01-29T17:19:31.593Z,9.18
2023-01-29T17:21:59.686Z,10.18
2023-01-29T17:24:27.327Z,8.80
2023-01-29T17:26:54.807Z,8.15
2023-01-29T17:29:28.042Z,7.10
2023-01-29T17:31:56.229Z,8.02
2023-01-29T17:34:24.404Z,8.32
2023-01-29T17:36:52.431Z,6.07
2023-01-29T17:39:22.991Z,8.73
2023-01-29T17:41:53.370Z,7.90
2023-01-29T17:44:21.775Z,7.38
2023-01-29T17:46:49.646Z,10.45
2023-01-29T17:49:32.687Z,9.70
2023-01-29T17:52:00.389Z,8.13
2023-01-29T17:54:28.167Z,8.85
2023-01-29T17:56:55.892Z,7.63
2023-01-29T17:59:26.138Z,7.38
2023-01-29T18:01:54.038Z,6.72
2023-01-29T18:04:21.671Z,10.23
2023-01-29T18:06:51.916Z,9.50
2023-01-29T18:09:21.837Z,7.57
2023-01-29T18:11:50.721Z,9.30
2023-01-29T18:14:18.300Z,11.48
2023-01-29T18:16:46.385Z,9.55
2023-01-29T18:19:24.033Z,7.82
2023-01-29T18:21:52.566Z,12.07
2023-01-29T18:24:20.966Z,10.18
2023-01-29T18:26:49.776Z,9.50
2023-01-29T18:29:17.397Z,10.57
2023-01-29T18:31:44.920Z,9.35
2023-01-29T18:34:12.436Z,10.45
2023-01-29T18:36:40.066Z,14.93
2023-01-29T18:39:07.654Z,11.90
2023-01-29T18:41:35.243Z,11.55
2023-01-29T18:44:02.687Z,10.57
2023-01-29T18:46:30.201Z,9.68
2023-01-29T18:48:57.654Z,11.40
2023-01-29T18:51:25.177Z,10.95
2023-01-29T18:53:52.795Z,12.23
2023-01-29T18:56:20.460Z,14.98
2023-01-29T18:58:51.936Z,10.35
2023-01-29T19:01:22.900Z,12.93
2023-01-29T19:03:50.509Z,10.88
2023-01-29T19:06:18.118Z,9.48
2023-01-29T19:08:45.799Z,12.73
2023-01-29T19:11:13.407Z,11.13
2023-01-29T19:13:42.626Z,12.00
2023-01-29T19:16:11.091Z,10.98
2023-01-29T19:18:38.889Z,9.68
2023-01-29T19:21:08.947Z,12.80
2023-01-29T19:23:36.696Z,10.70
2023-01-29T19:26:04.636Z,11.93
2023-01-29T19:28:32.763Z,11.63
2023-01-29T19:31:01.065Z,12.30
2023-01-29T19:33:28.917Z,12.38
2023-01-29T19:36:00.149Z,10.40
2023-01-29T19:38:27.808Z,10.18
2023-01-29T19:40:55.482Z,12.68
2023-01-29T19:43:22.989Z,9.88
2023-01-29T19:45:57.936Z,13.93
2023-01-29T19:48:26.517Z,13.02
2023-01-29T19:50:59.690Z,13.98
2023-01-29T19:53:31.228Z,12.20
2023-01-29T19:56:00.689Z,12.73
2023-01-29T19:58:28.670Z,13.98
2023-01-29T20:01:02.042Z,14.38
2023-01-29T20:03:30.051Z,17.65
2023-01-29T20:06:05.369Z,13.60
2023-01-29T20:08:34.018Z,16.17
2023-01-29T20:11:01.836Z,10.73
2023-01-29T20:13:29.388Z,13.50
2023-01-29T20:15:57.060Z,14.45
2023-01-29T20:18:24.636Z,11.98
2023-01-29T20:20:53.552Z,12.43
2023-01-29T20:23:35.481Z,12.23
2023-01-29T20:26:06.577Z,13.25
2023-01-29T20:28:35.145Z,12.40
2023-01-29T20:31:03.844Z,11.13
2023-01-29T20:33:32.036Z,14.02
2023-01-29T20:36:02.305Z,11.60
2023-01-29T20:38:34.709Z,14.15
2023-01-29T20:41:21.390Z,14.15
2023-01-29T20:43:50.889Z,14.77
2023-01-29T20:46:19.037Z,11.63
2023-01-29T20:48:46.977Z,11.82
2023-01-29T20:51:16.990Z,12.27
2023-01-29T20:53:46.533Z,17.27
2023-01-29T20:56:16.588Z,14.10
2023-01-29T20:58:45.059Z,11.05
2023-01-29T21:01:17.568Z,11.95
2023-01-29T21:03:46.460Z,12.03
2023-01-29T21:06:14.485Z,11.52
2023-01-29T21:08:42.363Z,15.68
2023-01-29T21:11:10.510Z,15.57
2023-01-29T21:13:38.195Z,16.50
2023-01-29T21:16:06.041Z,11.63
2023-01-29T21:18:33.617Z,15.98
2023-01-29T21:21:01.146Z,13.75
2023-01-29T21:23:28.917Z,12.23
2023-01-29T21:26:04.413Z,13.45
2023-01-29T21:28:32.684Z,14.35
2023-01-29T21:31:05.747Z,16.45
2023-01-29T21:33:34.563Z,18.45
2023-01-29T21:36:02.486Z,15.60
2023-01-29T21:38:30.112Z,17.25
2023-01-29T21:41:05.120Z,12.70
2023-01-29T21:43:32.987Z,18.88
2023-01-29T21:46:11.479Z,14.90
2023-01-29T21:48:40.402Z,15.65
2023-01-29T21:51:08.378Z,19.00
2023-01-29T21:53:36.904Z,15.60
2023-01-29T21:56:05.918Z,17.88
2023-01-29T21:58:33.572Z,18.67
2023-01-29T22:01:36.499Z,19.00
2023-01-29T22:03:49.206Z,18.40
2023-01-29T22:06:16.685Z,17.60
2023-01-29T22:08:44.246Z,23.63
2023-01-29T22:11:11.964Z,18.38
2023-01-29T22:13:39.595Z,18.05
2023-01-29T22:16:07.712Z,18.83
2023-01-29T22:18:35.404Z,18.30
2023-01-29T22:21:03.087Z,22.35
2023-01-29T22:23:31.673Z,18.80
2023-01-29T22:26:05.970Z,18.92
2023-01-29T22:28:33.534Z,18.80
2023-01-29T22:31:02.548Z,18.38
2023-01-29T22:33:30.290Z,19.83
2023-01-29T22:35:58.079Z,20.50
2023-01-29T22:38:26.110Z,19.67
2023-01-29T22:40:55.080Z,19.92
2023-01-29T22:43:23.439Z,19.92
2023-01-29T22:45:50.921Z,17.55
2023-01-29T22:48:18.661Z,21.60
2023-01-29T22:50:54.011Z,17.30
2023-01-29T22:53:21.623Z,17.15
2023-01-29T22:55:55.965Z,22.80
2023-01-29T22:58:23.582Z,17.90
2023-01-29T23:00:51.444Z,18.80
2023-01-29T23:03:19.064Z,19.17
2023-01-29T23:05:46.496Z,18.42
2023-01-29T23:08:14.164Z,18.10
2023-01-29T23:10:41.632Z,17.73
2023-01-29T23:13:09.224Z,15.55
2023-01-29T23:15:36.697Z,19.05
2023-01-29T23:18:04.985Z,18.90
2023-01-29T23:20:32.796Z,17.48
2023-01-29T23:23:00.483Z,19.40
2023-01-29T23:25:48.126Z,16.77
2023-01-29T23:28:15.745Z,18.55
2023-01-29T23:30:45.419Z,16.02
2023-01-29T23:33:13.057Z,19.98
2023-01-29T23:35:40.544Z,16.00
2023-01-29T23:38:08.197Z,15.82
2023-01-29T23:40:35.626Z,16.23
2023-01-29T23:43:03.206Z,14.30
2023-01-29T23:45:30.701Z,18.08
2023-01-29T23:47:58.791Z,13.95
2023-01-29T23:50:26.350Z,16.08
2023-01-29T23:52:53.954Z,15.25
2023-01-29T23:55:21.393Z,19.13
2023-01-29T23:57:48.998Z,16.45
